logo
Search for airport 
image banner adimage banner adimage banner ad
image banner ad

DBBB - Aeroport International Cardinal Bernardin Gantin / Cadjehoun

Located in Cotonou, Benin

ICAO - DBBB, IATA - COO

Data provided by Airmate  

General information

Coordinates: N6°21'23" E2°23'0"
Elevation is 20 feet MSL.
 
View others Airports in Atlantique

Operational data

Special qualification required
Current time UTC:
Current local time:
Weather
METAR: DBBB 152000Z 23013KT 9999 SCT009 SCT014 26/23 Q1014 NOSIG
TAF: TAF DBBB 151700Z 1518/1624 24012KT 9999 SCT009 SCT014
View NOTAMs / SUP AIP / TFR affecting this airport [VIEW]
Communications frequencies: [VIEW]

Runways:

RWY identifierQFULength (ft)Width (ft)SurfaceLDA (ft)
0653°7874148ASP
24233°7874148ASP

Airport contact information

Address: Cotonou Benin

Satellite view of DBBB